Time;durP1;ratioP1;P1;durP2;ratioP2;P2;SDS_P1;SDS_P2;PMS_P1;PMS_P2;Temp;Humidity;BMP_temperature;BMP_pressure;BME280_temperature;BME280_humidity;BME280_pressure;Samples;Min_cycle;Max_cycle;Signal;HPM_P1;HPM_P2
2022/03/31 00:00:52;;;;;;;19.53;7.93;;;;;;;;;;5013152;28;20210;-85
2022/03/31 00:03:22;;;;;;;9.37;7.17;;;;;;;;;;5012949;28;20210;-85
2022/03/31 00:05:50;;;;;;;12.27;6.47;;;;;;;;;;5012818;28;20196;-85
2022/03/31 00:08:18;;;;;;;19.07;7.73;;;;;;;;;;5012930;28;20280;-85
2022/03/31 00:10:47;;;;;;;15.20;6.77;;;;;;;;;;5012867;28;20352;-85
2022/03/31 00:13:16;;;;;;;8.67;6.83;;;;;;;;;;5012724;28;20703;-84
2022/03/31 00:15:43;;;;;;;11.03;7.47;;;;;;;;;;5011800;28;20195;-85
2022/03/31 00:18:12;;;;;;;10.30;7.13;;;;;;;;;;5013012;28;20195;-85
2022/03/31 00:20:40;;;;;;;18.47;8.43;;;;;;;;;;5012370;28;20196;-84
2022/03/31 00:23:08;;;;;;;18.33;7.33;;;;;;;;;;5012748;28;20290;-85
2022/03/31 00:25:36;;;;;;;8.77;7.37;;;;;;;;;;5012487;28;20197;-85
2022/03/31 00:28:04;;;;;;;15.83;7.27;;;;;;;;;;5012924;28;20227;-85
2022/03/31 00:30:31;;;;;;;12.67;8.00;;;;;;;;;;5012244;28;20203;-84
2022/03/31 00:32:59;;;;;;;13.23;7.43;;;;;;;;;;5012499;28;20702;-85
2022/03/31 00:35:26;;;;;;;14.27;7.43;;;;;;;;;;5012027;28;20232;-84
2022/03/31 00:37:55;;;;;;;15.23;7.93;;;;;;;;;;5012485;28;20798;-85
2022/03/31 00:40:23;;;;;;;13.80;6.97;;;;;;;;;;5011948;28;20199;-84
2022/03/31 00:42:51;;;;;;;19.50;7.83;;;;;;;;;;5012478;28;20211;-85
2022/03/31 00:45:20;;;;;;;10.10;7.80;;;;;;;;;;5012211;28;20199;-85
2022/03/31 00:47:48;;;;;;;14.83;7.57;;;;;;;;;;5012678;28;20268;-84
2022/03/31 00:50:16;;;;;;;12.57;7.43;;;;;;;;;;5012220;28;20206;-85
2022/03/31 00:52:44;;;;;;;13.07;7.93;;;;;;;;;;5012454;28;20226;-85
2022/03/31 00:55:15;;;;;;;12.20;8.13;;;;;;;;;;5012158;28;20326;-84
2022/03/31 00:57:43;;;;;;;21.47;7.97;;;;;;;;;;5012286;28;20180;-85
2022/03/31 01:00:12;;;;;;;17.90;8.77;;;;;;;;;;5012393;28;20542;-84
2022/03/31 01:02:40;;;;;;;14.00;8.20;;;;;;;;;;5012327;28;20644;-85
2022/03/31 01:05:09;;;;;;;13.20;7.77;;;;;;;;;;5012369;28;20560;-84
2022/03/31 01:07:37;;;;;;;11.87;8.37;;;;;;;;;;5012179;28;20202;-85
2022/03/31 01:10:06;;;;;;;13.90;7.33;;;;;;;;;;5011936;28;20210;-84
2022/03/31 01:12:35;;;;;;;12.87;7.50;;;;;;;;;;5012118;28;20199;-85
2022/03/31 01:15:07;;;;;;;14.70;8.37;;;;;;;;;;5011647;28;20230;-84
2022/03/31 01:17:34;;;;;;;12.10;7.13;;;;;;;;;;5012380;28;20222;-84
2022/03/31 01:20:03;;;;;;;12.63;7.63;;;;;;;;;;5011854;28;20299;-84
2022/03/31 01:22:31;;;;;;;11.20;7.70;;;;;;;;;;5012040;28;20391;-84
2022/03/31 01:25:01;;;;;;;12.97;8.87;;;;;;;;;;5011892;28;20206;-84
2022/03/31 01:27:28;;;;;;;19.63;10.03;;;;;;;;;;5014102;28;20203;-84
2022/03/31 01:29:56;;;;;;;19.17;7.87;;;;;;;;;;5015684;28;20203;-84
2022/03/31 01:32:24;;;;;;;11.43;8.17;;;;;;;;;;5015807;28;20195;-85
2022/03/31 01:34:51;;;;;;;11.27;7.60;;;;;;;;;;5015262;28;20257;-85
2022/03/31 01:37:19;;;;;;;14.40;8.17;;;;;;;;;;5015982;28;20286;-84
2022/03/31 01:39:47;;;;;;;9.43;7.27;;;;;;;;;;5015536;28;20209;-84
2022/03/31 01:42:16;;;;;;;11.40;7.70;;;;;;;;;;5015641;28;20202;-85
2022/03/31 01:44:43;;;;;;;16.93;7.70;;;;;;;;;;5015240;28;20668;-85
2022/03/31 01:47:11;;;;;;;14.63;7.17;;;;;;;;;;5015625;28;20294;-85
2022/03/31 01:49:38;;;;;;;12.17;7.23;;;;;;;;;;5015288;28;20195;-85
2022/03/31 01:52:06;;;;;;;9.77;6.97;;;;;;;;;;5015459;28;20195;-85
2022/03/31 01:54:34;;;;;;;13.57;6.87;;;;;;;;;;5015257;28;20238;-84
2022/03/31 01:57:01;;;;;;;14.50;8.47;;;;;;;;;;5015386;28;20210;-85
2022/03/31 01:59:35;;;;;;;19.97;9.27;;;;;;;;;;5015281;28;20290;-85
2022/03/31 02:02:02;;;;;;;18.00;9.03;;;;;;;;;;5015425;28;20188;-84
2022/03/31 02:04:30;;;;;;;13.67;9.53;;;;;;;;;;5015106;28;20696;-85
2022/03/31 02:06:57;;;;;;;11.30;9.07;;;;;;;;;;5015464;28;20237;-85
2022/03/31 02:09:25;;;;;;;14.57;9.47;;;;;;;;;;5015260;28;20199;-85
2022/03/31 02:11:52;;;;;;;12.37;9.27;;;;;;;;;;5015031;28;20298;-84
2022/03/31 02:14:20;;;;;;;15.43;10.13;;;;;;;;;;5014724;28;20226;-85
2022/03/31 02:16:49;;;;;;;17.50;9.03;;;;;;;;;;5015304;28;20257;-85
2022/03/31 02:19:17;;;;;;;14.67;8.57;;;;;;;;;;5014876;28;20199;-84
2022/03/31 02:21:44;;;;;;;18.70;8.43;;;;;;;;;;5013927;28;20644;-84
2022/03/31 02:24:11;;;;;;;15.23;8.13;;;;;;;;;;5014687;28;20294;-84
2022/03/31 02:26:38;;;;;;;10.77;7.63;;;;;;;;;;5014691;28;20295;-85
2022/03/31 02:29:06;;;;;;;16.93;8.93;;;;;;;;;;5014551;28;20286;-84
2022/03/31 02:31:33;;;;;;;13.33;7.53;;;;;;;;;;5014764;28;20199;-84
2022/03/31 02:34:02;;;;;;;13.47;7.43;;;;;;;;;;5014089;28;20286;-84
2022/03/31 02:36:30;;;;;;;15.03;8.73;;;;;;;;;;5014750;28;20270;-84
2022/03/31 02:38:58;;;;;;;14.10;7.87;;;;;;;;;;5013398;28;20683;-84
2022/03/31 02:41:25;;;;;;;12.33;6.97;;;;;;;;;;5014264;28;20210;-84
2022/03/31 02:43:53;;;;;;;11.60;7.27;;;;;;;;;;5014128;28;20683;-83
2022/03/31 02:46:21;;;;;;;10.90;7.63;;;;;;;;;;5014357;28;20574;-84
2022/03/31 02:48:48;;;;;;;14.60;7.00;;;;;;;;;;5014603;28;20203;-84
2022/03/31 02:51:17;;;;;;;11.90;7.57;;;;;;;;;;5014271;28;20200;-84
2022/03/31 02:56:29;;;;;;;13.87;8.00;;;;;;;;;;5013944;28;20230;-83
2022/03/31 02:58:57;;;;;;;9.57;7.57;;;;;;;;;;5013855;28;20203;-85
2022/03/31 03:01:24;;;;;;;13.83;7.80;;;;;;;;;;5014073;28;20798;-84
2022/03/31 03:03:51;;;;;;;16.57;9.10;;;;;;;;;;5013775;28;20286;-83
2022/03/31 03:06:20;;;;;;;14.37;8.00;;;;;;;;;;5013695;28;20207;-84
2022/03/31 03:08:47;;;;;;;16.73;7.93;;;;;;;;;;5013767;28;20199;-84
2022/03/31 03:11:15;;;;;;;10.20;6.83;;;;;;;;;;5013875;28;20668;-84
2022/03/31 03:13:42;;;;;;;10.47;7.33;;;;;;;;;;5013671;28;20258;-84
2022/03/31 03:16:10;;;;;;;16.17;8.37;;;;;;;;;;5013563;28;20266;-84
2022/03/31 03:18:37;;;;;;;10.03;7.97;;;;;;;;;;5013564;28;20698;-84
2022/03/31 03:21:04;;;;;;;11.57;6.83;;;;;;;;;;5013997;28;20282;-84
2022/03/31 03:23:33;;;;;;;11.27;9.10;;;;;;;;;;5013156;28;20204;-84
2022/03/31 03:26:01;;;;;;;13.93;8.20;;;;;;;;;;5012438;28;20206;-83
2022/03/31 03:28:29;;;;;;;13.73;6.67;;;;;;;;;;5013008;28;20263;-84
2022/03/31 03:30:56;;;;;;;29.20;22.37;;;;;;;;;;5012558;28;20199;-84
2022/03/31 03:33:23;;;;;;;36.97;24.77;;;;;;;;;;5012782;28;20209;-84
2022/03/31 03:35:50;;;;;;;46.80;31.20;;;;;;;;;;5012076;28;20235;-84
2022/03/31 03:38:18;;;;;;;61.17;36.23;;;;;;;;;;5011815;28;20196;-83
2022/03/31 03:40:46;;;;;;;52.00;32.60;;;;;;;;;;5012735;28;20199;-84
2022/03/31 03:43:14;;;;;;;37.90;24.97;;;;;;;;;;5012548;28;20195;-85
2022/03/31 03:45:41;;;;;;;35.03;23.27;;;;;;;;;;5012703;28;20202;-85
2022/03/31 03:48:10;;;;;;;33.47;21.73;;;;;;;;;;5012969;28;20291;-84
2022/03/31 03:50:38;;;;;;;29.83;19.30;;;;;;;;;;5013938;28;20200;-83
2022/03/31 03:53:05;;;;;;;35.97;23.50;;;;;;;;;;5014307;28;20278;-85
2022/03/31 03:55:34;;;;;;;18.83;13.43;;;;;;;;;;5012661;28;20233;-86
2022/03/31 03:58:03;;;;;;;14.87;9.93;;;;;;;;;;5012675;28;20199;-85
2022/03/31 04:00:30;;;;;;;14.60;10.27;;;;;;;;;;5012384;28;20200;-84
2022/03/31 04:02:58;;;;;;;19.23;12.03;;;;;;;;;;5012524;28;20210;-85
2022/03/31 04:05:25;;;;;;;30.53;18.60;;;;;;;;;;5012323;28;20626;-85
2022/03/31 04:07:53;;;;;;;30.43;22.93;;;;;;;;;;5012348;28;20585;-85
2022/03/31 04:10:20;;;;;;;19.27;14.03;;;;;;;;;;5013016;28;20196;-85
2022/03/31 04:12:47;;;;;;;20.07;10.20;;;;;;;;;;5013149;28;20648;-85
2022/03/31 04:15:16;;;;;;;19.03;10.77;;;;;;;;;;5012455;28;20258;-84
2022/03/31 04:17:43;;;;;;;33.57;17.70;;;;;;;;;;5012830;28;20292;-86
2022/03/31 04:20:13;;;;;;;23.80;14.70;;;;;;;;;;5013012;28;20573;-87
2022/03/31 04:22:40;;;;;;;22.50;14.07;;;;;;;;;;5012876;28;20210;-83
2022/03/31 04:25:09;;;;;;;24.40;17.03;;;;;;;;;;5027743;28;20198;-84
2022/03/31 04:27:37;;;;;;;22.57;16.07;;;;;;;;;;5032316;28;20199;-84
2022/03/31 04:30:05;;;;;;;22.80;14.13;;;;;;;;;;5017982;28;20211;-82
2022/03/31 04:32:34;;;;;;;27.53;13.60;;;;;;;;;;5012635;28;20199;-83
2022/03/31 04:35:01;;;;;;;20.60;13.27;;;;;;;;;;5011918;28;20231;-84
2022/03/31 04:37:29;;;;;;;18.93;12.90;;;;;;;;;;5012293;28;20261;-84
2022/03/31 04:39:56;;;;;;;19.43;11.97;;;;;;;;;;5012221;28;20199;-83
2022/03/31 04:42:23;;;;;;;17.33;10.33;;;;;;;;;;5012401;28;20199;-83
2022/03/31 04:44:50;;;;;;;14.90;8.83;;;;;;;;;;5012206;28;20290;-83
2022/03/31 04:47:18;;;;;;;12.13;9.87;;;;;;;;;;5012368;28;20282;-83
2022/03/31 04:49:46;;;;;;;12.03;10.27;;;;;;;;;;5012043;28;20200;-83
2022/03/31 04:52:14;;;;;;;13.17;8.10;;;;;;;;;;5012548;28;20203;-83
2022/03/31 04:54:43;;;;;;;30.67;24.23;;;;;;;;;;5012006;28;20676;-83
2022/03/31 04:57:12;;;;;;;24.53;20.33;;;;;;;;;;5011989;28;20199;-83
2022/03/31 04:59:39;;;;;;;16.53;11.90;;;;;;;;;;5012051;28;20206;-83
2022/03/31 05:02:07;;;;;;;21.37;12.47;;;;;;;;;;5011933;28;20734;-84
2022/03/31 05:04:34;;;;;;;26.03;19.63;;;;;;;;;;5011968;28;20203;-83
2022/03/31 05:07:03;;;;;;;41.20;36.97;;;;;;;;;;5011883;28;20253;-83
2022/03/31 05:09:30;;;;;;;29.00;14.27;;;;;;;;;;5011882;28;20200;-83
2022/03/31 05:11:58;;;;;;;25.33;13.03;;;;;;;;;;5012096;28;20239;-84
2022/03/31 05:14:25;;;;;;;30.37;22.33;;;;;;;;;;5011870;28;20199;-83
2022/03/31 05:16:53;;;;;;;20.50;12.67;;;;;;;;;;5011751;28;20613;-83
2022/03/31 05:19:20;;;;;;;16.40;10.60;;;;;;;;;;5012133;28;20555;-83
2022/03/31 05:21:47;;;;;;;33.23;13.13;;;;;;;;;;5011924;28;20199;-84
2022/03/31 05:24:16;;;;;;;20.67;12.37;;;;;;;;;;5012132;28;20366;-84
2022/03/31 05:26:44;;;;;;;22.60;12.67;;;;;;;;;;5011778;28;20203;-83
2022/03/31 05:29:11;;;;;;;19.57;9.43;;;;;;;;;;5011770;28;20673;-83
2022/03/31 05:31:38;;;;;;;20.87;11.40;;;;;;;;;;5012221;28;20582;-83
2022/03/31 05:34:05;;;;;;;26.13;13.50;;;;;;;;;;5011438;28;20212;-83
2022/03/31 05:36:32;;;;;;;19.20;12.40;;;;;;;;;;5011663;28;20217;-83
2022/03/31 05:39:00;;;;;;;16.37;9.60;;;;;;;;;;5011651;28;20298;-83
2022/03/31 05:41:29;;;;;;;19.97;11.00;;;;;;;;;;5011843;28;20195;-83
2022/03/31 05:43:56;;;;;;;21.47;10.73;;;;;;;;;;5011613;28;20199;-83
2022/03/31 05:46:23;;;;;;;15.10;9.60;;;;;;;;;;5011797;28;20203;-84
2022/03/31 05:48:51;;;;;;;15.83;9.70;;;;;;;;;;5011392;28;20267;-84
2022/03/31 05:51:18;;;;;;;20.60;10.67;;;;;;;;;;5012031;28;20203;-84
2022/03/31 05:53:45;;;;;;;17.50;11.77;;;;;;;;;;5011504;28;20199;-83
2022/03/31 05:56:13;;;;;;;18.90;10.53;;;;;;;;;;5011556;28;20314;-83
2022/03/31 05:58:41;;;;;;;14.53;11.30;;;;;;;;;;5011703;28;20609;-83
2022/03/31 06:01:09;;;;;;;22.73;10.90;;;;;;;;;;5011611;28;20210;-84
2022/03/31 06:03:36;;;;;;;18.43;12.23;;;;;;;;;;5011569;28;20290;-83
2022/03/31 06:06:03;;;;;;;35.73;14.97;;;;;;;;;;5011592;28;20203;-84
2022/03/31 06:08:31;;;;;;;18.70;12.40;;;;;;;;;;5011284;28;20203;-83
2022/03/31 06:10:58;;;;;;;20.80;11.70;;;;;;;;;;5009608;28;20289;-83
2022/03/31 06:13:26;;;;;;;36.80;15.40;;;;;;;;;;5010934;28;20245;-84
2022/03/31 06:15:55;;;;;;;46.40;23.30;;;;;;;;;;5014812;28;20262;-84
2022/03/31 06:18:24;;;;;;;42.43;22.87;;;;;;;;;;5014705;28;20261;-83
2022/03/31 06:20:51;;;;;;;20.17;11.53;;;;;;;;;;5014997;28;20200;-83
2022/03/31 06:23:18;;;;;;;43.67;18.13;;;;;;;;;;5014861;28;20286;-84
2022/03/31 06:25:46;;;;;;;24.50;12.43;;;;;;;;;;5014608;28;20231;-83
2022/03/31 06:28:14;;;;;;;27.27;12.63;;;;;;;;;;5014503;28;20195;-83
2022/03/31 06:30:41;;;;;;;29.53;15.30;;;;;;;;;;5014629;28;20206;-83
2022/03/31 06:33:10;;;;;;;38.70;24.13;;;;;;;;;;5014722;28;20589;-83
2022/03/31 06:35:37;;;;;;;42.83;24.43;;;;;;;;;;5014196;28;20235;-84
2022/03/31 06:38:05;;;;;;;27.73;13.77;;;;;;;;;;5014361;28;20203;-83
2022/03/31 06:40:36;;;;;;;29.60;17.27;;;;;;;;;;5014667;28;20276;-83
2022/03/31 06:43:03;;;;;;;18.10;10.93;;;;;;;;;;5014571;28;20187;-84
2022/03/31 06:45:31;;;;;;;21.67;11.33;;;;;;;;;;5014032;28;20251;-84
2022/03/31 06:48:00;;;;;;;23.17;12.47;;;;;;;;;;5014432;28;20211;-84
2022/03/31 06:50:30;;;;;;;21.73;12.63;;;;;;;;;;5014386;28;20290;-84
2022/03/31 06:52:58;;;;;;;33.10;17.47;;;;;;;;;;5014343;28;20204;-84
2022/03/31 06:55:25;;;;;;;46.33;28.53;;;;;;;;;;5014158;28;20287;-84
2022/03/31 06:57:53;;;;;;;30.60;19.17;;;;;;;;;;5014378;28;20390;-84
2022/03/31 07:00:20;;;;;;;54.70;40.20;;;;;;;;;;5014506;28;20292;-84
2022/03/31 07:02:47;;;;;;;35.17;23.13;;;;;;;;;;5014220;28;20195;-84
2022/03/31 07:05:15;;;;;;;30.10;21.40;;;;;;;;;;5013759;28;20200;-84
2022/03/31 07:07:43;;;;;;;41.30;28.57;;;;;;;;;;5014125;28;20722;-84
2022/03/31 07:10:11;;;;;;;31.43;17.87;;;;;;;;;;5013763;28;20666;-84
2022/03/31 07:12:39;;;;;;;26.80;19.93;;;;;;;;;;5013875;28;20197;-84
2022/03/31 07:15:08;;;;;;;26.50;13.17;;;;;;;;;;5013565;28;20214;-84
2022/03/31 07:17:35;;;;;;;26.03;17.30;;;;;;;;;;5013837;28;20226;-84
2022/03/31 07:20:03;;;;;;;23.13;13.33;;;;;;;;;;5013644;28;20200;-83
2022/03/31 07:22:30;;;;;;;25.73;12.27;;;;;;;;;;5013803;28;20266;-83
2022/03/31 07:24:58;;;;;;;21.83;13.50;;;;;;;;;;5013504;28;20582;-83
2022/03/31 07:27:26;;;;;;;31.67;13.47;;;;;;;;;;5013754;28;20205;-83
2022/03/31 07:29:53;;;;;;;27.50;12.70;;;;;;;;;;5013771;28;20199;-83
2022/03/31 07:32:20;;;;;;;30.60;13.37;;;;;;;;;;5013605;28;20297;-83
2022/03/31 07:34:47;;;;;;;26.77;11.93;;;;;;;;;;5013112;28;20230;-83
2022/03/31 07:37:15;;;;;;;27.87;14.07;;;;;;;;;;5013527;28;20226;-83
2022/03/31 07:39:45;;;;;;;29.97;12.60;;;;;;;;;;5013393;28;20224;-83
2022/03/31 07:42:14;;;;;;;19.37;10.93;;;;;;;;;;5013402;28;20191;-83
2022/03/31 07:44:41;;;;;;;23.43;12.07;;;;;;;;;;5013181;28;20228;-83
2022/03/31 07:47:09;;;;;;;27.07;13.50;;;;;;;;;;5013150;28;20286;-83
2022/03/31 07:49:36;;;;;;;35.37;16.80;;;;;;;;;;5013045;28;20228;-83
2022/03/31 07:52:04;;;;;;;23.10;12.37;;;;;;;;;;5013533;28;20636;-83
2022/03/31 07:54:31;;;;;;;22.33;14.33;;;;;;;;;;5013010;28;20202;-83
2022/03/31 07:56:59;;;;;;;22.60;11.67;;;;;;;;;;5013153;28;20225;-83
2022/03/31 07:59:33;;;;;;;34.10;16.70;;;;;;;;;;5012958;28;20202;-83
2022/03/31 08:02:00;;;;;;;25.67;10.97;;;;;;;;;;5013016;28;20194;-83
2022/03/31 08:04:28;;;;;;;27.80;12.43;;;;;;;;;;5012798;28;20291;-83
2022/03/31 08:06:56;;;;;;;17.77;10.57;;;;;;;;;;5013145;28;20192;-83
2022/03/31 08:09:23;;;;;;;18.63;8.33;;;;;;;;;;5012828;28;20194;-84
2022/03/31 08:11:51;;;;;;;22.73;9.47;;;;;;;;;;5013179;28;20631;-83
2022/03/31 08:14:19;;;;;;;35.93;18.77;;;;;;;;;;5013037;28;20203;-83
2022/03/31 08:16:48;;;;;;;38.73;21.63;;;;;;;;;;5012458;28;20285;-83
2022/03/31 08:19:15;;;;;;;27.57;13.07;;;;;;;;;;5012600;28;20290;-84
2022/03/31 08:21:43;;;;;;;29.20;17.90;;;;;;;;;;5012773;28;20207;-84
2022/03/31 08:24:11;;;;;;;25.97;15.70;;;;;;;;;;5012461;28;20647;-83
2022/03/31 08:26:38;;;;;;;57.73;34.73;;;;;;;;;;5012350;28;20257;-83
2022/03/31 08:29:06;;;;;;;25.33;9.47;;;;;;;;;;5012439;28;20204;-83
2022/03/31 08:31:34;;;;;;;33.30;19.80;;;;;;;;;;5012676;28;20199;-83
2022/03/31 08:34:03;;;;;;;32.47;16.10;;;;;;;;;;5012323;28;20203;-83
2022/03/31 08:36:30;;;;;;;22.60;12.37;;;;;;;;;;5012450;28;20711;-83
2022/03/31 08:38:58;;;;;;;41.53;21.87;;;;;;;;;;5012880;28;20203;-83
2022/03/31 08:41:27;;;;;;;27.10;13.93;;;;;;;;;;5012731;28;20207;-83
2022/03/31 08:43:55;;;;;;;35.23;13.70;;;;;;;;;;5012724;28;20286;-82
2022/03/31 08:46:23;;;;;;;20.90;8.80;;;;;;;;;;5013041;28;20249;-83
2022/03/31 08:48:50;;;;;;;37.17;16.93;;;;;;;;;;5012582;28;20676;-83
2022/03/31 08:51:19;;;;;;;20.10;11.13;;;;;;;;;;5013065;28;20600;-83
2022/03/31 08:53:46;;;;;;;42.87;15.20;;;;;;;;;;5012847;28;20410;-84
2022/03/31 08:56:13;;;;;;;40.83;20.40;;;;;;;;;;5012648;28;20227;-84
2022/03/31 08:58:44;;;;;;;28.17;12.70;;;;;;;;;;5012514;28;20287;-83
2022/03/31 09:01:12;;;;;;;25.87;12.40;;;;;;;;;;5012732;28;20266;-83
2022/03/31 09:03:40;;;;;;;26.63;10.47;;;;;;;;;;5012564;28;20294;-83
2022/03/31 09:06:07;;;;;;;40.07;16.83;;;;;;;;;;5012426;28;20204;-83
2022/03/31 09:08:36;;;;;;;34.13;18.03;;;;;;;;;;5012965;28;20203;-84
2022/03/31 09:11:03;;;;;;;47.60;24.30;;;;;;;;;;5012996;28;20558;-84
2022/03/31 09:13:32;;;;;;;61.63;30.83;;;;;;;;;;5012830;28;20235;-83
2022/03/31 09:16:01;;;;;;;38.47;22.30;;;;;;;;;;5011960;28;20200;-84
2022/03/31 09:18:30;;;;;;;35.63;20.77;;;;;;;;;;5012339;28;20284;-83
2022/03/31 09:21:00;;;;;;;41.60;21.90;;;;;;;;;;5012237;28;20670;-83
2022/03/31 09:23:28;;;;;;;28.80;17.67;;;;;;;;;;5012499;28;20580;-83
2022/03/31 09:26:02;;;;;;;25.60;11.63;;;;;;;;;;5012383;28;20200;-83
2022/03/31 09:28:29;;;;;;;27.73;9.23;;;;;;;;;;5012054;28;20202;-83
2022/03/31 09:30:57;;;;;;;20.37;9.70;;;;;;;;;;5012639;28;20592;-83
2022/03/31 09:33:29;;;;;;;32.80;20.10;;;;;;;;;;5012120;28;20204;-84
2022/03/31 09:36:05;;;;;;;23.53;8.70;;;;;;;;;;5011567;28;20262;-83
2022/03/31 09:38:35;;;;;;;22.03;9.30;;;;;;;;;;5011968;28;20187;-83
2022/03/31 09:41:05;;;;;;;21.03;9.17;;;;;;;;;;5011744;28;20186;-83
2022/03/31 09:43:40;;;;;;;24.00;9.33;;;;;;;;;;5012100;28;20304;-84
2022/03/31 09:46:18;;;;;;;29.23;9.43;;;;;;;;;;5011756;28;20682;-84
2022/03/31 09:48:45;;;;;;;25.00;8.87;;;;;;;;;;5014201;28;20194;-84
2022/03/31 09:51:13;;;;;;;21.03;7.60;;;;;;;;;;5015552;28;20280;-84
2022/03/31 09:53:41;;;;;;;20.33;8.37;;;;;;;;;;5015356;28;20201;-83
2022/03/31 09:56:10;;;;;;;18.37;10.53;;;;;;;;;;5015465;28;20205;-84
2022/03/31 09:58:39;;;;;;;23.93;8.93;;;;;;;;;;5015041;28;20225;-83
2022/03/31 10:01:07;;;;;;;21.70;9.63;;;;;;;;;;5015531;28;20201;-83
2022/03/31 10:03:34;;;;;;;29.67;15.60;;;;;;;;;;5015202;28;20233;-83
2022/03/31 10:06:02;;;;;;;23.10;9.30;;;;;;;;;;5015240;28;20201;-83
2022/03/31 10:08:34;;;;;;;27.63;17.00;;;;;;;;;;5014827;28;20198;-83
2022/03/31 10:11:01;;;;;;;17.33;8.07;;;;;;;;;;5015114;28;20250;-83
2022/03/31 10:13:35;;;;;;;26.73;12.60;;;;;;;;;;5015019;28;20239;-84
2022/03/31 10:16:08;;;;;;;29.30;16.97;;;;;;;;;;5015090;28;20309;-83
2022/03/31 10:18:36;;;;;;;33.93;11.67;;;;;;;;;;5014865;28;20295;-83
2022/03/31 10:21:04;;;;;;;29.03;10.17;;;;;;;;;;5015162;28;20199;-83
2022/03/31 10:26:23;;;;;;;37.47;9.07;;;;;;;;;;5014887;28;20191;-83
2022/03/31 10:28:59;;;;;;;26.30;8.90;;;;;;;;;;5014458;28;20203;-83
2022/03/31 10:31:36;;;;;;;24.80;8.00;;;;;;;;;;5014717;28;20192;-83
2022/03/31 10:34:04;;;;;;;30.07;9.27;;;;;;;;;;5014238;28;20280;-84
2022/03/31 10:36:40;;;;;;;29.40;11.90;;;;;;;;;;5014848;28;20181;-83
2022/03/31 10:39:14;;;;;;;23.73;9.83;;;;;;;;;;5014526;28;20190;-83
2022/03/31 10:41:42;;;;;;;27.77;7.63;;;;;;;;;;5014612;28;20190;-84
2022/03/31 10:44:21;;;;;;;30.87;7.37;;;;;;;;;;5014677;28;20202;-83
2022/03/31 10:47:00;;;;;;;14.93;6.57;;;;;;;;;;5014470;28;20208;-83
2022/03/31 10:49:28;;;;;;;25.30;7.73;;;;;;;;;;5014159;28;20282;-83
2022/03/31 10:51:56;;;;;;;16.20;6.87;;;;;;;;;;5014297;28;20207;-83
2022/03/31 10:54:28;;;;;;;23.60;6.87;;;;;;;;;;5014272;28;20294;-83
2022/03/31 10:57:08;;;;;;;23.43;7.47;;;;;;;;;;5014160;28;20226;-83
2022/03/31 10:59:37;;;;;;;21.90;7.13;;;;;;;;;;5013057;28;20198;-83
2022/03/31 11:02:12;;;;;;;31.43;9.17;;;;;;;;;;5014393;28;20771;-83
2022/03/31 11:04:45;;;;;;;17.97;7.53;;;;;;;;;;5014253;28;20199;-83
2022/03/31 11:07:15;;;;;;;13.57;7.07;;;;;;;;;;5014336;28;20203;-83
2022/03/31 11:09:43;;;;;;;16.10;6.17;;;;;;;;;;5013644;28;20187;-83
2022/03/31 11:12:20;;;;;;;30.23;9.47;;;;;;;;;;5013960;28;20704;-83
2022/03/31 11:14:55;;;;;;;18.17;7.17;;;;;;;;;;5013929;28;20543;-83
2022/03/31 11:17:23;;;;;;;24.07;8.50;;;;;;;;;;5014111;28;20584;-83
2022/03/31 11:19:51;;;;;;;28.60;10.27;;;;;;;;;;5013799;28;20208;-83
2022/03/31 11:22:22;;;;;;;40.57;9.37;;;;;;;;;;5013797;28;20837;-84
2022/03/31 11:24:51;;;;;;;15.03;7.10;;;;;;;;;;5013501;28;20288;-83
2022/03/31 11:27:36;;;;;;;21.10;6.57;;;;;;;;;;5013660;28;20673;-83
2022/03/31 11:30:07;;;;;;;27.90;6.40;;;;;;;;;;5013339;28;20193;-83
2022/03/31 11:32:35;;;;;;;13.17;6.43;;;;;;;;;;5013975;28;20569;-83
2022/03/31 11:35:02;;;;;;;48.60;9.30;;;;;;;;;;5013260;28;20720;-83
2022/03/31 11:37:30;;;;;;;21.90;10.73;;;;;;;;;;5013423;28;20223;-83
2022/03/31 11:39:57;;;;;;;29.30;7.97;;;;;;;;;;5013057;28;20200;-83
2022/03/31 11:42:24;;;;;;;20.00;9.03;;;;;;;;;;5013552;28;20203;-83
2022/03/31 11:44:51;;;;;;;25.23;9.23;;;;;;;;;;5013489;28;20232;-83
2022/03/31 11:47:24;;;;;;;25.00;8.20;;;;;;;;;;5013719;28;20206;-83
2022/03/31 11:49:58;;;;;;;27.43;7.90;;;;;;;;;;5012866;28;20191;-83
2022/03/31 11:52:30;;;;;;;35.50;9.53;;;;;;;;;;5013575;28;20225;-83
2022/03/31 11:55:00;;;;;;;29.77;8.83;;;;;;;;;;5013231;28;20644;-83
2022/03/31 11:57:28;;;;;;;25.23;11.57;;;;;;;;;;5012933;28;20220;-84
2022/03/31 11:59:56;;;;;;;27.73;8.00;;;;;;;;;;5013215;28;20199;-83
2022/03/31 12:02:25;;;;;;;29.00;10.37;;;;;;;;;;5013096;28;20290;-83
2022/03/31 12:04:52;;;;;;;26.23;9.03;;;;;;;;;;5012822;28;20677;-83
2022/03/31 12:07:20;;;;;;;29.67;10.40;;;;;;;;;;5013288;28;20200;-83
2022/03/31 12:09:48;;;;;;;14.83;5.97;;;;;;;;;;5012901;28;20199;-83
2022/03/31 12:12:17;;;;;;;32.80;8.97;;;;;;;;;;5013155;28;20637;-84
2022/03/31 12:14:55;;;;;;;26.17;7.53;;;;;;;;;;5013017;28;20201;-84
2022/03/31 12:17:24;;;;;;;20.23;6.27;;;;;;;;;;5012861;28;20758;-83
2022/03/31 12:19:51;;;;;;;28.83;6.13;;;;;;;;;;5012631;28;20772;-83
2022/03/31 12:22:19;;;;;;;14.43;6.20;;;;;;;;;;5012740;28;20258;-83
2022/03/31 12:24:48;;;;;;;33.60;8.00;;;;;;;;;;5012541;28;20200;-83
2022/03/31 12:27:17;;;;;;;27.47;8.33;;;;;;;;;;5012458;28;20219;-83
2022/03/31 12:29:45;;;;;;;27.53;8.33;;;;;;;;;;5012540;28;20195;-83
2022/03/31 12:32:14;;;;;;;22.73;7.67;;;;;;;;;;5012594;28;20703;-83
2022/03/31 12:34:53;;;;;;;17.37;6.80;;;;;;;;;;5012334;28;20235;-83
2022/03/31 12:37:28;;;;;;;17.63;7.53;;;;;;;;;;5012594;28;20203;-83
2022/03/31 12:39:56;;;;;;;18.70;6.00;;;;;;;;;;5012050;28;20183;-83
2022/03/31 12:42:23;;;;;;;29.80;8.37;;;;;;;;;;5012775;28;20203;-83
2022/03/31 12:44:51;;;;;;;15.83;5.77;;;;;;;;;;5012625;28;20225;-83
2022/03/31 12:47:22;;;;;;;17.37;6.23;;;;;;;;;;5012212;28;20195;-83
2022/03/31 12:49:51;;;;;;;13.43;6.27;;;;;;;;;;5012217;28;20187;-82
2022/03/31 12:52:20;;;;;;;20.93;6.10;;;;;;;;;;5012369;28;20294;-83
2022/03/31 12:54:52;;;;;;;13.07;6.83;;;;;;;;;;5011946;28;20626;-83
2022/03/31 12:57:21;;;;;;;25.50;6.70;;;;;;;;;;5012129;28;20199;-83
2022/03/31 13:00:00;;;;;;;16.13;6.43;;;;;;;;;;5012056;28;20207;-83
2022/03/31 13:02:28;;;;;;;7.43;4.90;;;;;;;;;;5012007;28;20212;-83
2022/03/31 13:04:56;;;;;;;8.97;4.43;;;;;;;;;;5012018;28;20202;-83
2022/03/31 13:07:28;;;;;;;15.13;6.63;;;;;;;;;;5012450;28;20235;-83
2022/03/31 13:09:56;;;;;;;25.20;9.53;;;;;;;;;;5011997;28;20238;-83
2022/03/31 13:12:24;;;;;;;10.20;4.97;;;;;;;;;;5012270;28;20278;-83
2022/03/31 13:14:51;;;;;;;14.30;5.40;;;;;;;;;;5011890;28;20215;-83
2022/03/31 13:17:19;;;;;;;9.27;4.63;;;;;;;;;;5012066;28;20207;-83
2022/03/31 13:19:47;;;;;;;9.70;5.67;;;;;;;;;;5011888;28;20254;-83
2022/03/31 13:22:20;;;;;;;9.20;4.87;;;;;;;;;;5012283;28;20294;-83
2022/03/31 13:24:48;;;;;;;12.63;6.43;;;;;;;;;;5015874;28;20188;-83
2022/03/31 13:27:16;;;;;;;18.40;7.20;;;;;;;;;;5016266;28;20198;-83
2022/03/31 13:29:43;;;;;;;16.07;7.00;;;;;;;;;;5015842;28;20192;-83
2022/03/31 13:32:10;;;;;;;13.67;8.07;;;;;;;;;;5015645;28;20277;-83
2022/03/31 13:34:40;;;;;;;10.87;6.43;;;;;;;;;;5015643;28;20314;-83
2022/03/31 13:37:09;;;;;;;35.80;19.10;;;;;;;;;;5015774;28;20198;-83
2022/03/31 13:39:38;;;;;;;12.33;6.77;;;;;;;;;;5015276;28;20237;-83
2022/03/31 13:42:07;;;;;;;15.17;7.80;;;;;;;;;;5015755;28;20295;-83
2022/03/31 13:44:34;;;;;;;10.20;5.50;;;;;;;;;;5015445;28;20727;-83
2022/03/31 13:47:02;;;;;;;11.33;5.23;;;;;;;;;;5015617;28;20234;-83
2022/03/31 13:49:29;;;;;;;18.77;9.10;;;;;;;;;;5015509;28;20203;-83
2022/03/31 13:51:56;;;;;;;33.50;8.50;;;;;;;;;;5015696;28;20199;-84
2022/03/31 13:54:26;;;;;;;10.90;6.30;;;;;;;;;;5015494;28;20224;-83
2022/03/31 13:56:57;;;;;;;19.77;8.03;;;;;;;;;;5015650;28;20216;-83
2022/03/31 14:02:10;;;;;;;11.10;8.07;;;;;;;;;;5015345;28;20187;-83
2022/03/31 14:04:38;;;;;;;13.07;8.10;;;;;;;;;;5015059;28;20209;-82
2022/03/31 14:07:07;;;;;;;20.70;9.50;;;;;;;;;;5015203;28;20203;-83
2022/03/31 14:09:35;;;;;;;14.37;7.17;;;;;;;;;;5015040;28;20230;-83
2022/03/31 14:12:06;;;;;;;13.93;7.53;;;;;;;;;;5015480;28;20202;-82
2022/03/31 14:14:34;;;;;;;21.53;11.47;;;;;;;;;;5014862;28;20668;-83
2022/03/31 14:17:01;;;;;;;25.63;13.93;;;;;;;;;;5015095;28;20213;-83
2022/03/31 14:19:33;;;;;;;69.10;39.87;;;;;;;;;;5015085;28;20265;-83
2022/03/31 14:22:01;;;;;;;111.50;85.60;;;;;;;;;;5014983;28;20289;-83
2022/03/31 14:24:28;;;;;;;23.80;10.90;;;;;;;;;;5014704;28;20664;-83
2022/03/31 14:26:56;;;;;;;17.47;6.53;;;;;;;;;;5014776;28;20240;-83
2022/03/31 14:29:25;;;;;;;17.60;7.87;;;;;;;;;;5014527;28;20759;-83
2022/03/31 14:31:52;;;;;;;16.10;7.93;;;;;;;;;;5014719;28;20294;-83
2022/03/31 14:34:20;;;;;;;25.97;8.10;;;;;;;;;;5013067;28;20239;-83
2022/03/31 14:36:49;;;;;;;18.03;8.43;;;;;;;;;;5014621;28;20547;-83
2022/03/31 14:39:18;;;;;;;18.20;7.43;;;;;;;;;;5014334;28;20223;-83